Friday, April 20, 2018, 6:39 AM EDT
Back to Local

KUKT, Quakertown, Quakertown Airport

Location: Quakertown, PA, United States Lat: 40.435
Local Time: 6:39 AM EDT (10:39 GMT) Lon: -75.382
Time Zone: US/Eastern Elev: 524 ft

Show me the last for .
Show Decoded

2018-04-20 06:15 METAR KUKT 201015Z AUTO 28008KT 240V310 10SM BKN042 BKN048 01/M06 A3016 RMK A01
                 =
2018-04-20 05:55 METAR KUKT 200955Z AUTO VRB05G11KT 10SM OVC045 01/M06 A3015 RMK A01 =
2018-04-20 05:35 METAR KUKT 200935Z AUTO 29006KT 10SM BKN044 01/M06 A3014 RMK A01 =
2018-04-20 05:15 METAR KUKT 200915Z AUTO VRB05KT 10SM SCT045 01/M06 A3013 RMK A01 =
2018-04-20 04:55 METAR KUKT 200855Z AUTO VRB04KT 10SM BKN042 BKN048 01/M06 A3012 RMK A01 =
2018-04-20 04:35 METAR KUKT 200835Z AUTO 00000KT 10SM BKN043 BKN049 01/M06 A3012 RMK A01 =
2018-04-20 04:15 METAR KUKT 200815Z AUTO VRB05KT 10SM SCT046 01/M06 A3012 RMK A01 =
2018-04-20 03:55 METAR KUKT 200755Z AUTO 27005KT 10SM CLR 01/M06 A3011 RMK A01 =
2018-04-20 03:35 METAR KUKT 200735Z AUTO 28007G12KT 10SM CLR 01/M06 A3011 RMK A01 =
2018-04-20 03:15 METAR KUKT 200715Z AUTO VRB05KT 10SM CLR 01/M06 A3010 RMK A01 =
2018-04-20 02:55 METAR KUKT 200655Z AUTO 29008KT 10SM CLR 01/M05 A3009 RMK A01 =
2018-04-20 02:35 METAR KUKT 200635Z AUTO VRB05KT 10SM FEW039 01/M05 A3009 RMK A01 =
2018-04-20 02:15 METAR KUKT 200615Z AUTO VRB05KT 10SM SCT039 01/M04 A3009 RMK A01 =
2018-04-20 01:55 METAR KUKT 200555Z AUTO 28005KT 10SM FEW041 01/M04 A3008 RMK A01 =
2018-04-20 01:35 METAR KUKT 200535Z AUTO 29007KT 10SM CLR 02/M04 A3008 RMK A01 =
2018-04-20 01:15 METAR KUKT 200515Z AUTO 30006KT 10SM CLR 02/M04 A3008 RMK A01 =
2018-04-20 00:55 METAR KUKT 200455Z AUTO VRB06G11KT 10SM CLR 02/M04 A3008 RMK A01 =
2018-04-20 00:35 METAR KUKT 200435Z AUTO 28009KT 250V320 10SM FEW055 SCT070 02/M04 A3008 RMK A01
                 =
2018-04-20 00:15 METAR KUKT 200415Z AUTO 28008G15KT 250V320 10SM BKN049 BKN055 OVC075 03/M03
                 A3007 RMK A01 =
2018-04-19 23:55 METAR KUKT 200355Z AUTO 29010KT 260V320 10SM FEW032 FEW038 OVC049 03/M03 A3007
                 RMK A01 =
2018-04-19 23:35 METAR KUKT 200335Z AUTO 28010G18KT 240V330 10SM BKN035 BKN041 OVC048 03/M03
                 A3006 RMK A01 =
2018-04-19 23:15 METAR KUKT 200315Z AUTO 28005G13KT 10SM OVC041 04/M03 A3005 RMK A01 =
2018-04-19 22:55 METAR KUKT 200255Z AUTO 27007KT 10SM BKN043 OVC060 04/M03 A3005 RMK A01 =
2018-04-19 22:35 METAR KUKT 200235Z AUTO 27010KT 10SM FEW040 FEW046 OVC060 04/M04 A3005 RMK A01 =
2018-04-19 22:15 METAR KUKT 200215Z AUTO 28011G16KT 230V310 10SM FEW047 OVC055 04/M04 A3004 RMK
                 A01 =
2018-04-19 21:55 METAR KUKT 200155Z AUTO 26007KT 10SM OVC055 04/M04 A3004 RMK A01 =
2018-04-19 21:35 METAR KUKT 200135Z AUTO VRB06G13KT 10SM OVC050 04/M04 A3004 RMK A01 =
2018-04-19 21:15 METAR KUKT 200115Z AUTO VRB05KT 10SM BKN050 BKN065 04/M05 A3003 RMK A01 =
2018-04-19 20:55 METAR KUKT 200055Z AUTO VRB06KT 10SM SCT060 03/M05 A3002 RMK A01 =
2018-04-19 20:35 METAR KUKT 200035Z AUTO VRB06G12KT 10SM SCT055 04/M05 A3001 RMK A01 =
2018-04-19 20:15 METAR KUKT 200015Z AUTO 29008KT 10SM CLR 04/M04 A3000 RMK A01 =
2018-04-19 19:55 METAR KUKT 192355Z AUTO VRB05G13KT 10SM SCT050 04/M03 A2998 RMK A01 =
2018-04-19 19:35 METAR KUKT 192335Z AUTO 30009KT 10SM FEW044 BKN050 BKN055 04/M02 A2997 RMK A01 =
2018-04-19 19:15 METAR KUKT 192315Z AUTO 30010G21KT 10SM FEW031 FEW039 BKN047 05/M02 A2995 RMK
                 A01 =
2018-04-19 18:55 METAR KUKT 192255Z AUTO 29012G19KT 250V320 10SM FEW031 SCT045 BKN050 05/M01
                 A2994 RMK A01 =
2018-04-19 18:35 METAR KUKT 192235Z AUTO 30009G23KT 10SM SCT044 BKN055 OVC065 05/M01 A2993 RMK
                 A01 =
2018-04-19 18:15 METAR KUKT 192215Z AUTO 30008G15KT 10SM 06/M01 A2991 RMK A01 =
2018-04-19 17:55 METAR KUKT 192155Z AUTO 28010KT 210V310 10SM SCT038 BKN043 OVC055 06/M00 A2990
                 RMK A01 =
2018-04-19 17:35 METAR KUKT 192135Z AUTO 29008G15KT 10SM BKN042 OVC048 06/M00 A2989 RMK A01 =
2018-04-19 17:15 METAR KUKT 192115Z AUTO 29014G21KT 10SM BKN040 BKN049 OVC065 06/M00 A2988 RMK
                 A01 =
2018-04-19 16:55 METAR KUKT 192055Z AUTO 27010KT 10SM FEW047 BKN060 OVC065 06/01 A2987 RMK A01 =
2018-04-19 16:35 METAR KUKT 192035Z AUTO VRB06KT 10SM FEW026 SCT033 OVC055 05/02 A2986 RMK A01 =
2018-04-19 16:15 METAR KUKT 192015Z AUTO 32007KT 9SM SCT021 BKN029 OVC050 05/02 A2986 RMK A01 =
2018-04-19 15:55 METAR KUKT 191955Z AUTO 32007G13KT 3SM BR BKN021 OVC031 05/03 A2985 RMK A01 =
2018-04-19 15:35 METAR KUKT 191935Z AUTO 32008KT 7SM SCT020 BKN024 OVC030 06/03 A2983 RMK A01 =
2018-04-19 15:15 METAR KUKT 191915Z AUTO 31010G17KT 260V340 10SM SCT023 OVC029 07/02 A2981 RMK
                 A01 =
2018-04-19 14:55 METAR KUKT 191855Z AUTO 26008KT 10SM BKN022 BKN029 BKN037 07/02 A2981 RMK A01 =
2018-04-19 14:35 METAR KUKT 191835Z AUTO 32008KT 10SM SCT018 BKN023 OVC100 06/03 A2980 RMK A01 =
2018-04-19 14:15 METAR KUKT 191815Z AUTO 30010G15KT 10SM SCT016 BKN027 OVC110 05/03 A2980 RMK A01
                 =
2018-04-19 13:55 METAR KUKT 191755Z AUTO 28008G14KT 9SM FEW012 BKN016 OVC027 05/03 A2980 RMK A01
                 =
2018-04-19 13:35 METAR KUKT 191735Z AUTO 29009KT 260V320 9SM BKN011 OVC015 05/03 A2980 RMK A01 =
2018-04-19 13:15 METAR KUKT 191715Z AUTO VRB06G11KT 10SM OVC012 05/04 A2978 RMK A01 =
2018-04-19 12:55 METAR KUKT 191655Z AUTO 29006KT 5SM BR BKN011 OVC016 05/04 A2976 RMK A01 =
2018-04-19 12:35 METAR KUKT 191635Z AUTO 29003KT 5SM BR BKN012 OVC017 05/04 A2976 RMK A01 =
2018-04-19 12:15 METAR KUKT 191615Z AUTO 00000KT 5SM BR BKN017 BKN025 OVC032 05/04 A2975 RMK A01
                 =
2018-04-19 11:55 METAR KUKT 191555Z AUTO 33005KT 2 1/2SM BR FEW013 SCT026 BKN033 05/03 A2974 RMK
                 A01 =
2018-04-19 11:35 METAR KUKT 191535Z AUTO VRB04KT 10SM BKN034 05/03 A2973 RMK A01 =
2018-04-19 11:15 METAR KUKT 191515Z AUTO 35006KT 10SM OVC033 05/02 A2973 RMK A01 =
2018-04-19 10:55 METAR KUKT 191455Z AUTO 36005KT 10SM OVC032 05/03 A2972 RMK A01 =
2018-04-19 10:35 METAR KUKT 191435Z AUTO 01005KT 10SM SCT010 OVC033 05/03 A2972 RMK A01 =
2018-04-19 10:15 METAR KUKT 191415Z AUTO 34008KT 10SM SCT010 OVC034 05/03 A2972 RMK A01 =
2018-04-19 09:55 METAR KUKT 191355Z AUTO 34005KT 10SM FEW010 OVC033 05/04 A2971 RMK A01 =
2018-04-19 09:35 METAR KUKT 191335Z AUTO VRB04KT 10SM OVC031 05/04 A2969 RMK A01 =
2018-04-19 09:15 METAR KUKT 191315Z AUTO 02004KT 10SM FEW010 OVC031 05/04 A2969 RMK A01 =
2018-04-19 08:55 METAR KUKT 191255Z AUTO 01006KT 10SM SCT006 BKN010 OVC033 05/04 A2969 RMK A01 =
2018-04-19 08:35 METAR KUKT 191235Z AUTO 36007G13KT 9SM BKN005 OVC009 05/04 A2970 RMK A01 =
2018-04-19 08:15 METAR KUKT 191215Z AUTO 34009KT 9SM BKN005 BKN085 05/05 A2970 RMK A01 =
2018-04-19 07:55 METAR KUKT 191155Z AUTO 32010KT 9SM FEW005 FEW085 05/05 A2969 RMK A01 =
2018-04-19 07:35 METAR KUKT 191135Z AUTO 34006KT 9SM CLR 05/05 A2965 RMK A01 =
2018-04-19 07:15 METAR KUKT 191115Z AUTO 00000KT 9SM FEW100 05/05 A2963 RMK A01 =
2018-04-19 06:55 METAR KUKT 191055Z AUTO 07003KT 9SM SCT100 05/05 A2963 RMK A01 P0001 =

Support USWX by starting your Amazon purchase here.